Impacts TAF Board INFO
FOR SITUATIONAL AWARENESS. NOT TO BE USED FOR FLIGHT PLANNING PURPOSES.
IDs:

KBFM - Mobile/Downtown Arpt, AL, US

Issued at 0527 UTC 22 Jul 2018
Updated at 0814 UTC 22 Jul 2018
Potential Impact None Slight Moderate High
Time0753Z 22/09Z 22/10Z 22/11Z 22/12Z 22/13Z 22/14Z 22/15Z 22/16Z 22/17Z 22/18Z 22/19Z 22/20Z 22/21Z>>
Type OBS PRVL PRVL PRVL PRVL PRVL PRVL PRVL PRVL PRVL PRVL PRVL PRVL PRVL
VIS 10 >6 >6 >6 >6 >6 >6 >6 >6 >6 >6 >6 >6 >6
CIG -- -- -- -- -- -- -- -- -- -- -- -- -- --
Cover CLR SCT SCT SCT SCT SCT SCT SCT SCT SCT SCT SCT SCT SCT
FltCat VFR VFR VFR VFR VFR VFR VFR VFR VFR VFR VFR VFR VFR VFR
WX -- -- -- -- -- -- -- -- -- -- -- -- -- --
WDir 270 250 250 250 250 250 290 290 290 290 290 290 290 290
WSpd 5 5 5 5 5 5 9 9 9 9 9 9 9 9
WGst -- -- -- -- -- -- 15 15 15 15 15 15 15 15

Raw TAF
KBFM 220527Z 2206/2306 25005KT P6SM SCT250
  FM221400 29009G15KT P6SM FEW050 SCT250


Raw METAR
KBFM 220753Z AUTO 27005KT 10SM CLR 29/26 A2987 RMK AO2 SLP113 T02890256
KBFM 220653Z AUTO VRB04KT 10SM CLR 29/25 A2988 RMK AO2 SLP119 T02890250
KBFM 220553Z AUTO 26004KT 10SM CLR 29/24 A2989 RMK AO2 SLP122 T02940244 10333 20294 403670278 58001

METAR Board
Radar Display
Forecast Discussion

FOR SITUATIONAL AWARENESS. NOT TO BE USED FOR FLIGHT PLANNING PURPOSES.